sensor_id;sensor_type;location;lat;lon;timestamp;P1;durP1;ratioP1;P2;durP2;ratioP2
3677;SDS011;1855;50.934;6.958;2022-12-13T00:01:54;22.75;;;19.92;;
3677;SDS011;1855;50.934;6.958;2022-12-13T00:04:22;22.63;;;19.98;;
3677;SDS011;1855;50.934;6.958;2022-12-13T00:06:49;22.40;;;20.10;;
3677;SDS011;1855;50.934;6.958;2022-12-13T00:09:18;22.33;;;19.45;;
3677;SDS011;1855;50.934;6.958;2022-12-13T00:11:45;25.10;;;21.65;;
3677;SDS011;1855;50.934;6.958;2022-12-13T00:14:12;23.20;;;20.70;;
3677;SDS011;1855;50.934;6.958;2022-12-13T00:16:43;25.95;;;21.52;;
3677;SDS011;1855;50.934;6.958;2022-12-13T00:19:10;22.40;;;19.65;;
3677;SDS011;1855;50.934;6.958;2022-12-13T00:21:39;23.80;;;21.07;;
3677;SDS011;1855;50.934;6.958;2022-12-13T00:24:06;24.30;;;21.65;;
3677;SDS011;1855;50.934;6.958;2022-12-13T00:26:33;24.63;;;21.00;;
3677;SDS011;1855;50.934;6.958;2022-12-13T00:29:00;24.30;;;21.00;;
3677;SDS011;1855;50.934;6.958;2022-12-13T00:31:28;24.63;;;21.10;;
3677;SDS011;1855;50.934;6.958;2022-12-13T00:33:56;24.00;;;21.38;;
3677;SDS011;1855;50.934;6.958;2022-12-13T00:36:23;24.47;;;21.63;;
3677;SDS011;1855;50.934;6.958;2022-12-13T00:38:51;23.88;;;21.20;;
3677;SDS011;1855;50.934;6.958;2022-12-13T00:41:25;23.90;;;20.42;;
3677;SDS011;1855;50.934;6.958;2022-12-13T00:43:54;22.83;;;20.17;;
3677;SDS011;1855;50.934;6.958;2022-12-13T00:46:21;26.77;;;21.95;;
3677;SDS011;1855;50.934;6.958;2022-12-13T00:48:48;24.15;;;20.58;;
3677;SDS011;1855;50.934;6.958;2022-12-13T00:51:16;23.13;;;20.63;;
3677;SDS011;1855;50.934;6.958;2022-12-13T00:53:43;25.30;;;21.83;;
3677;SDS011;1855;50.934;6.958;2022-12-13T00:56:12;23.88;;;20.77;;
3677;SDS011;1855;50.934;6.958;2022-12-13T00:58:40;25.10;;;21.47;;
3677;SDS011;1855;50.934;6.958;2022-12-13T01:01:08;25.40;;;22.27;;
3677;SDS011;1855;50.934;6.958;2022-12-13T01:03:37;23.90;;;20.60;;
3677;SDS011;1855;50.934;6.958;2022-12-13T01:06:07;25.10;;;20.40;;
3677;SDS011;1855;50.934;6.958;2022-12-13T01:08:35;25.90;;;21.40;;
3677;SDS011;1855;50.934;6.958;2022-12-13T01:11:02;23.60;;;20.70;;
3677;SDS011;1855;50.934;6.958;2022-12-13T01:13:31;24.00;;;21.38;;
3677;SDS011;1855;50.934;6.958;2022-12-13T01:15:57;26.23;;;22.25;;
3677;SDS011;1855;50.934;6.958;2022-12-13T01:18:26;24.88;;;20.67;;
3677;SDS011;1855;50.934;6.958;2022-12-13T01:20:56;23.40;;;20.70;;
3677;SDS011;1855;50.934;6.958;2022-12-13T01:23:24;23.55;;;21.05;;
3677;SDS011;1855;50.934;6.958;2022-12-13T01:25:51;25.73;;;22.65;;
3677;SDS011;1855;50.934;6.958;2022-12-13T01:28:18;25.50;;;22.05;;
3677;SDS011;1855;50.934;6.958;2022-12-13T01:30:53;24.10;;;20.95;;
3677;SDS011;1855;50.934;6.958;2022-12-13T01:33:21;24.52;;;20.77;;
3677;SDS011;1855;50.934;6.958;2022-12-13T01:35:48;23.45;;;20.98;;
3677;SDS011;1855;50.934;6.958;2022-12-13T01:38:15;23.67;;;20.25;;
3677;SDS011;1855;50.934;6.958;2022-12-13T01:40:43;24.13;;;21.58;;
3677;SDS011;1855;50.934;6.958;2022-12-13T01:43:11;23.17;;;20.63;;
3677;SDS011;1855;50.934;6.958;2022-12-13T01:45:39;23.45;;;20.83;;
3677;SDS011;1855;50.934;6.958;2022-12-13T01:48:07;24.45;;;21.20;;
3677;SDS011;1855;50.934;6.958;2022-12-13T01:50:38;26.55;;;22.50;;
3677;SDS011;1855;50.934;6.958;2022-12-13T01:53:08;24.08;;;21.42;;
3677;SDS011;1855;50.934;6.958;2022-12-13T01:55:39;23.70;;;21.10;;
3677;SDS011;1855;50.934;6.958;2022-12-13T01:58:10;24.23;;;21.00;;
3677;SDS011;1855;50.934;6.958;2022-12-13T02:00:38;25.30;;;21.70;;
3677;SDS011;1855;50.934;6.958;2022-12-13T02:03:05;25.77;;;22.33;;
3677;SDS011;1855;50.934;6.958;2022-12-13T02:05:35;24.65;;;21.50;;
3677;SDS011;1855;50.934;6.958;2022-12-13T02:08:05;23.90;;;21.40;;
3677;SDS011;1855;50.934;6.958;2022-12-13T02:10:34;25.38;;;22.00;;
3677;SDS011;1855;50.934;6.958;2022-12-13T02:13:01;23.35;;;20.90;;
3677;SDS011;1855;50.934;6.958;2022-12-13T02:15:30;24.45;;;21.80;;
3677;SDS011;1855;50.934;6.958;2022-12-13T02:21:02;23.63;;;20.10;;
3677;SDS011;1855;50.934;6.958;2022-12-13T02:23:49;24.67;;;20.73;;
3677;SDS011;1855;50.934;6.958;2022-12-13T02:26:45;23.00;;;20.40;;
3677;SDS011;1855;50.934;6.958;2022-12-13T02:29:28;23.90;;;19.60;;
3677;SDS011;1855;50.934;6.958;2022-12-13T02:32:18;22.67;;;20.27;;
3677;SDS011;1855;50.934;6.958;2022-12-13T02:34:54;22.92;;;20.42;;
3677;SDS011;1855;50.934;6.958;2022-12-13T02:37:28;22.80;;;20.10;;
3677;SDS011;1855;50.934;6.958;2022-12-13T02:40:03;22.08;;;19.52;;
3677;SDS011;1855;50.934;6.958;2022-12-13T02:42:35;22.40;;;19.55;;
3677;SDS011;1855;50.934;6.958;2022-12-13T02:45:08;21.45;;;19.10;;
3677;SDS011;1855;50.934;6.958;2022-12-13T02:47:41;24.70;;;20.63;;
3677;SDS011;1855;50.934;6.958;2022-12-13T02:50:09;23.95;;;19.58;;
3677;SDS011;1855;50.934;6.958;2022-12-13T02:52:39;22.95;;;20.08;;
3677;SDS011;1855;50.934;6.958;2022-12-13T02:55:07;22.60;;;19.98;;
3677;SDS011;1855;50.934;6.958;2022-12-13T02:57:38;23.98;;;20.67;;
3677;SDS011;1855;50.934;6.958;2022-12-13T03:00:07;20.60;;;18.40;;
3677;SDS011;1855;50.934;6.958;2022-12-13T03:02:40;22.92;;;19.90;;
3677;SDS011;1855;50.934;6.958;2022-12-13T03:05:19;24.70;;;20.63;;
3677;SDS011;1855;50.934;6.958;2022-12-13T03:08:14;22.15;;;19.58;;
3677;SDS011;1855;50.934;6.958;2022-12-13T03:10:48;22.10;;;19.40;;
3677;SDS011;1855;50.934;6.958;2022-12-13T03:13:25;22.67;;;20.27;;
3677;SDS011;1855;50.934;6.958;2022-12-13T03:16:04;20.92;;;18.08;;
3677;SDS011;1855;50.934;6.958;2022-12-13T03:18:48;23.00;;;19.92;;
3677;SDS011;1855;50.934;6.958;2022-12-13T03:21:16;22.10;;;19.48;;
3677;SDS011;1855;50.934;6.958;2022-12-13T03:23:44;22.73;;;19.77;;
3677;SDS011;1855;50.934;6.958;2022-12-13T03:26:12;24.58;;;20.05;;
3677;SDS011;1855;50.934;6.958;2022-12-13T03:28:40;23.02;;;19.55;;
3677;SDS011;1855;50.934;6.958;2022-12-13T03:31:07;23.03;;;20.30;;
3677;SDS011;1855;50.934;6.958;2022-12-13T03:33:34;22.38;;;19.85;;
3677;SDS011;1855;50.934;6.958;2022-12-13T03:36:04;23.13;;;20.13;;
3677;SDS011;1855;50.934;6.958;2022-12-13T03:38:32;22.93;;;19.50;;
3677;SDS011;1855;50.934;6.958;2022-12-13T03:40:59;23.08;;;19.42;;
3677;SDS011;1855;50.934;6.958;2022-12-13T03:43:28;21.50;;;19.00;;
3677;SDS011;1855;50.934;6.958;2022-12-13T03:45:55;22.77;;;19.27;;
3677;SDS011;1855;50.934;6.958;2022-12-13T03:48:22;21.20;;;18.80;;
3677;SDS011;1855;50.934;6.958;2022-12-13T03:50:51;22.75;;;20.23;;
3677;SDS011;1855;50.934;6.958;2022-12-13T03:53:21;22.10;;;19.70;;
3677;SDS011;1855;50.934;6.958;2022-12-13T03:55:49;23.65;;;19.13;;
3677;SDS011;1855;50.934;6.958;2022-12-13T03:58:16;24.58;;;21.35;;
3677;SDS011;1855;50.934;6.958;2022-12-13T04:00:43;23.40;;;19.95;;
3677;SDS011;1855;50.934;6.958;2022-12-13T04:03:09;21.60;;;18.05;;
3677;SDS011;1855;50.934;6.958;2022-12-13T04:05:36;23.13;;;19.48;;
3677;SDS011;1855;50.934;6.958;2022-12-13T04:08:03;21.35;;;18.95;;
3677;SDS011;1855;50.934;6.958;2022-12-13T04:10:32;23.17;;;19.52;;
3677;SDS011;1855;50.934;6.958;2022-12-13T04:12:59;24.05;;;19.50;;
3677;SDS011;1855;50.934;6.958;2022-12-13T04:15:44;23.85;;;19.73;;
3677;SDS011;1855;50.934;6.958;2022-12-13T04:18:13;24.25;;;20.60;;
3677;SDS011;1855;50.934;6.958;2022-12-13T04:20:40;23.30;;;19.42;;
3677;SDS011;1855;50.934;6.958;2022-12-13T04:23:06;23.77;;;19.02;;
3677;SDS011;1855;50.934;6.958;2022-12-13T04:25:35;25.73;;;21.08;;
3677;SDS011;1855;50.934;6.958;2022-12-13T04:28:02;23.25;;;19.60;;
3677;SDS011;1855;50.934;6.958;2022-12-13T04:30:29;23.98;;;19.40;;
3677;SDS011;1855;50.934;6.958;2022-12-13T04:32:55;23.90;;;19.48;;
3677;SDS011;1855;50.934;6.958;2022-12-13T04:35:22;22.17;;;19.70;;
3677;SDS011;1855;50.934;6.958;2022-12-13T04:37:49;22.23;;;18.83;;
3677;SDS011;1855;50.934;6.958;2022-12-13T04:40:16;23.38;;;18.92;;
3677;SDS011;1855;50.934;6.958;2022-12-13T04:42:44;24.48;;;20.52;;
3677;SDS011;1855;50.934;6.958;2022-12-13T04:45:11;22.57;;;19.30;;
3677;SDS011;1855;50.934;6.958;2022-12-13T04:47:41;24.60;;;19.58;;
3677;SDS011;1855;50.934;6.958;2022-12-13T04:50:08;21.58;;;19.02;;
3677;SDS011;1855;50.934;6.958;2022-12-13T04:52:35;23.00;;;18.47;;
3677;SDS011;1855;50.934;6.958;2022-12-13T04:55:03;23.20;;;19.00;;
3677;SDS011;1855;50.934;6.958;2022-12-13T04:57:31;23.67;;;19.58;;
3677;SDS011;1855;50.934;6.958;2022-12-13T04:59:59;24.70;;;19.60;;
3677;SDS011;1855;50.934;6.958;2022-12-13T05:02:25;21.80;;;19.40;;
3677;SDS011;1855;50.934;6.958;2022-12-13T05:04:52;24.55;;;19.20;;
3677;SDS011;1855;50.934;6.958;2022-12-13T05:07:19;25.67;;;19.67;;
3677;SDS011;1855;50.934;6.958;2022-12-13T05:09:47;23.70;;;19.20;;
3677;SDS011;1855;50.934;6.958;2022-12-13T05:12:13;22.23;;;19.50;;
3677;SDS011;1855;50.934;6.958;2022-12-13T05:14:40;22.38;;;19.48;;
3677;SDS011;1855;50.934;6.958;2022-12-13T05:17:08;24.05;;;18.92;;
3677;SDS011;1855;50.934;6.958;2022-12-13T05:19:35;24.45;;;19.98;;
3677;SDS011;1855;50.934;6.958;2022-12-13T05:22:02;24.17;;;20.45;;
3677;SDS011;1855;50.934;6.958;2022-12-13T05:24:29;21.98;;;19.00;;
3677;SDS011;1855;50.934;6.958;2022-12-13T05:26:56;22.92;;;18.88;;
3677;SDS011;1855;50.934;6.958;2022-12-13T05:29:24;21.67;;;18.85;;
3677;SDS011;1855;50.934;6.958;2022-12-13T05:31:51;23.60;;;18.67;;
3677;SDS011;1855;50.934;6.958;2022-12-13T05:34:19;21.02;;;18.73;;
3677;SDS011;1855;50.934;6.958;2022-12-13T05:36:46;22.42;;;19.77;;
3677;SDS011;1855;50.934;6.958;2022-12-13T05:39:13;24.13;;;19.75;;
3677;SDS011;1855;50.934;6.958;2022-12-13T05:41:40;23.05;;;19.33;;
3677;SDS011;1855;50.934;6.958;2022-12-13T05:44:07;25.10;;;20.40;;
3677;SDS011;1855;50.934;6.958;2022-12-13T05:46:34;25.85;;;20.85;;
3677;SDS011;1855;50.934;6.958;2022-12-13T05:49:01;24.05;;;20.58;;
3677;SDS011;1855;50.934;6.958;2022-12-13T05:51:29;24.20;;;19.57;;
3677;SDS011;1855;50.934;6.958;2022-12-13T05:53:56;24.70;;;20.42;;
3677;SDS011;1855;50.934;6.958;2022-12-13T05:56:23;23.73;;;20.00;;
3677;SDS011;1855;50.934;6.958;2022-12-13T05:58:49;24.00;;;19.83;;
3677;SDS011;1855;50.934;6.958;2022-12-13T06:01:18;24.20;;;20.27;;
3677;SDS011;1855;50.934;6.958;2022-12-13T06:03:45;22.35;;;19.80;;
3677;SDS011;1855;50.934;6.958;2022-12-13T06:06:12;23.05;;;19.80;;
3677;SDS011;1855;50.934;6.958;2022-12-13T06:08:42;25.33;;;20.35;;
3677;SDS011;1855;50.934;6.958;2022-12-13T06:11:09;21.95;;;19.00;;
3677;SDS011;1855;50.934;6.958;2022-12-13T06:13:37;22.83;;;19.92;;
3677;SDS011;1855;50.934;6.958;2022-12-13T06:16:04;23.03;;;19.30;;
3677;SDS011;1855;50.934;6.958;2022-12-13T06:18:32;22.95;;;19.67;;
3677;SDS011;1855;50.934;6.958;2022-12-13T06:21:01;22.65;;;19.13;;
3677;SDS011;1855;50.934;6.958;2022-12-13T06:23:29;23.35;;;20.50;;
3677;SDS011;1855;50.934;6.958;2022-12-13T06:26:00;23.37;;;19.73;;
3677;SDS011;1855;50.934;6.958;2022-12-13T06:28:28;24.70;;;19.27;;
3677;SDS011;1855;50.934;6.958;2022-12-13T06:30:57;24.35;;;19.15;;
3677;SDS011;1855;50.934;6.958;2022-12-13T06:33:25;25.30;;;20.00;;
3677;SDS011;1855;50.934;6.958;2022-12-13T06:35:54;23.77;;;19.17;;
3677;SDS011;1855;50.934;6.958;2022-12-13T06:38:22;22.20;;;18.50;;
3677;SDS011;1855;50.934;6.958;2022-12-13T06:40:49;21.83;;;18.45;;
3677;SDS011;1855;50.934;6.958;2022-12-13T06:43:18;21.58;;;18.23;;
3677;SDS011;1855;50.934;6.958;2022-12-13T06:45:45;20.88;;;17.80;;
3677;SDS011;1855;50.934;6.958;2022-12-13T06:48:12;22.02;;;17.90;;
3677;SDS011;1855;50.934;6.958;2022-12-13T06:50:39;21.25;;;18.20;;
3677;SDS011;1855;50.934;6.958;2022-12-13T06:53:06;19.17;;;16.80;;
3677;SDS011;1855;50.934;6.958;2022-12-13T06:55:33;20.42;;;17.00;;
3677;SDS011;1855;50.934;6.958;2022-12-13T06:58:00;20.65;;;17.80;;
3677;SDS011;1855;50.934;6.958;2022-12-13T07:00:29;20.75;;;17.30;;
3677;SDS011;1855;50.934;6.958;2022-12-13T07:02:56;21.77;;;17.75;;
3677;SDS011;1855;50.934;6.958;2022-12-13T07:05:23;20.42;;;17.20;;
3677;SDS011;1855;50.934;6.958;2022-12-13T07:07:51;20.20;;;16.33;;
3677;SDS011;1855;50.934;6.958;2022-12-13T07:10:18;20.08;;;17.17;;
3677;SDS011;1855;50.934;6.958;2022-12-13T07:12:45;19.73;;;17.08;;
3677;SDS011;1855;50.934;6.958;2022-12-13T07:15:12;21.25;;;17.50;;
3677;SDS011;1855;50.934;6.958;2022-12-13T07:17:40;20.60;;;16.73;;
3677;SDS011;1855;50.934;6.958;2022-12-13T07:20:08;20.17;;;17.20;;
3677;SDS011;1855;50.934;6.958;2022-12-13T07:22:37;20.73;;;16.95;;
3677;SDS011;1855;50.934;6.958;2022-12-13T07:25:04;23.27;;;17.75;;
3677;SDS011;1855;50.934;6.958;2022-12-13T07:27:31;19.27;;;16.63;;
3677;SDS011;1855;50.934;6.958;2022-12-13T07:29:59;19.30;;;17.20;;
3677;SDS011;1855;50.934;6.958;2022-12-13T07:32:26;22.77;;;17.92;;
3677;SDS011;1855;50.934;6.958;2022-12-13T07:34:55;20.52;;;17.00;;
3677;SDS011;1855;50.934;6.958;2022-12-13T07:37:21;21.40;;;18.10;;
3677;SDS011;1855;50.934;6.958;2022-12-13T07:39:48;21.27;;;18.13;;
3677;SDS011;1855;50.934;6.958;2022-12-13T07:42:15;19.38;;;17.02;;
3677;SDS011;1855;50.934;6.958;2022-12-13T07:44:42;22.30;;;17.98;;
3677;SDS011;1855;50.934;6.958;2022-12-13T07:47:08;19.27;;;17.13;;
3677;SDS011;1855;50.934;6.958;2022-12-13T07:49:35;20.10;;;17.50;;
3677;SDS011;1855;50.934;6.958;2022-12-13T07:52:03;20.92;;;17.52;;
3677;SDS011;1855;50.934;6.958;2022-12-13T07:54:30;20.88;;;17.20;;
3677;SDS011;1855;50.934;6.958;2022-12-13T07:56:58;20.53;;;17.50;;
3677;SDS011;1855;50.934;6.958;2022-12-13T07:59:24;20.35;;;17.48;;
3677;SDS011;1855;50.934;6.958;2022-12-13T08:01:51;19.33;;;17.23;;
3677;SDS011;1855;50.934;6.958;2022-12-13T08:04:18;21.00;;;17.45;;
3677;SDS011;1855;50.934;6.958;2022-12-13T08:06:45;20.17;;;17.67;;
3677;SDS011;1855;50.934;6.958;2022-12-13T08:09:13;21.23;;;18.08;;
3677;SDS011;1855;50.934;6.958;2022-12-13T08:11:40;21.02;;;16.90;;
3677;SDS011;1855;50.934;6.958;2022-12-13T08:14:07;20.85;;;17.90;;
3677;SDS011;1855;50.934;6.958;2022-12-13T08:16:33;21.33;;;17.77;;
3677;SDS011;1855;50.934;6.958;2022-12-13T08:19:00;20.13;;;17.13;;
3677;SDS011;1855;50.934;6.958;2022-12-13T08:21:27;19.67;;;17.52;;
3677;SDS011;1855;50.934;6.958;2022-12-13T08:23:54;20.05;;;17.60;;
3677;SDS011;1855;50.934;6.958;2022-12-13T08:26:22;19.95;;;17.55;;
3677;SDS011;1855;50.934;6.958;2022-12-13T08:28:48;19.52;;;17.42;;
3677;SDS011;1855;50.934;6.958;2022-12-13T08:31:15;19.95;;;16.60;;
3677;SDS011;1855;50.934;6.958;2022-12-13T08:33:42;19.65;;;17.38;;
3677;SDS011;1855;50.934;6.958;2022-12-13T08:36:11;18.60;;;16.60;;
3677;SDS011;1855;50.934;6.958;2022-12-13T08:38:41;19.55;;;16.52;;
3677;SDS011;1855;50.934;6.958;2022-12-13T08:41:09;18.60;;;16.60;;
3677;SDS011;1855;50.934;6.958;2022-12-13T08:43:37;20.25;;;17.38;;
3677;SDS011;1855;50.934;6.958;2022-12-13T08:46:05;18.33;;;16.33;;
3677;SDS011;1855;50.934;6.958;2022-12-13T08:48:32;18.67;;;16.02;;
3677;SDS011;1855;50.934;6.958;2022-12-13T08:50:59;18.67;;;15.40;;
3677;SDS011;1855;50.934;6.958;2022-12-13T08:53:27;17.95;;;15.55;;
3677;SDS011;1855;50.934;6.958;2022-12-13T08:55:58;17.77;;;15.88;;
3677;SDS011;1855;50.934;6.958;2022-12-13T08:58:25;18.83;;;16.45;;
3677;SDS011;1855;50.934;6.958;2022-12-13T09:00:53;17.90;;;16.00;;
3677;SDS011;1855;50.934;6.958;2022-12-13T09:03:20;17.75;;;15.73;;
3677;SDS011;1855;50.934;6.958;2022-12-13T09:05:46;18.05;;;15.13;;
3677;SDS011;1855;50.934;6.958;2022-12-13T09:08:13;18.42;;;15.80;;
3677;SDS011;1855;50.934;6.958;2022-12-13T09:10:40;17.70;;;15.38;;
3677;SDS011;1855;50.934;6.958;2022-12-13T09:13:07;17.30;;;15.50;;
3677;SDS011;1855;50.934;6.958;2022-12-13T09:15:36;19.20;;;17.20;;
3677;SDS011;1855;50.934;6.958;2022-12-13T09:18:06;19.03;;;16.50;;
3677;SDS011;1855;50.934;6.958;2022-12-13T09:20:32;19.05;;;15.63;;
3677;SDS011;1855;50.934;6.958;2022-12-13T09:23:01;16.98;;;14.90;;
3677;SDS011;1855;50.934;6.958;2022-12-13T09:25:30;19.02;;;15.73;;
3677;SDS011;1855;50.934;6.958;2022-12-13T09:27:57;17.65;;;15.57;;
3677;SDS011;1855;50.934;6.958;2022-12-13T09:30:25;16.15;;;14.45;;
3677;SDS011;1855;50.934;6.958;2022-12-13T09:32:52;16.95;;;15.25;;
3677;SDS011;1855;50.934;6.958;2022-12-13T09:35:21;16.98;;;14.63;;
3677;SDS011;1855;50.934;6.958;2022-12-13T09:37:48;17.15;;;15.43;;
3677;SDS011;1855;50.934;6.958;2022-12-13T09:40:17;18.40;;;16.50;;
3677;SDS011;1855;50.934;6.958;2022-12-13T09:42:46;16.15;;;14.45;;
3677;SDS011;1855;50.934;6.958;2022-12-13T09:45:17;17.40;;;15.10;;
3677;SDS011;1855;50.934;6.958;2022-12-13T09:47:44;15.65;;;13.95;;
3677;SDS011;1855;50.934;6.958;2022-12-13T09:50:14;16.23;;;14.52;;
3677;SDS011;1855;50.934;6.958;2022-12-13T09:52:46;14.90;;;12.97;;
3677;SDS011;1855;50.934;6.958;2022-12-13T09:55:20;15.63;;;14.02;;
3677;SDS011;1855;50.934;6.958;2022-12-13T09:57:48;15.82;;;13.90;;
3677;SDS011;1855;50.934;6.958;2022-12-13T10:00:17;15.33;;;13.70;;
3677;SDS011;1855;50.934;6.958;2022-12-13T10:02:45;15.45;;;13.85;;
3677;SDS011;1855;50.934;6.958;2022-12-13T10:05:15;15.60;;;13.70;;
3677;SDS011;1855;50.934;6.958;2022-12-13T10:07:46;15.77;;;14.07;;
3677;SDS011;1855;50.934;6.958;2022-12-13T10:10:13;15.63;;;13.60;;
3677;SDS011;1855;50.934;6.958;2022-12-13T10:12:41;15.80;;;13.80;;
3677;SDS011;1855;50.934;6.958;2022-12-13T10:15:09;14.90;;;12.80;;
3677;SDS011;1855;50.934;6.958;2022-12-13T10:17:41;14.82;;;13.30;;
3677;SDS011;1855;50.934;6.958;2022-12-13T10:20:14;14.95;;;13.35;;
3677;SDS011;1855;50.934;6.958;2022-12-13T10:22:43;17.30;;;14.30;;
3677;SDS011;1855;50.934;6.958;2022-12-13T10:25:11;15.70;;;13.30;;
3677;SDS011;1855;50.934;6.958;2022-12-13T10:27:39;17.85;;;15.10;;
3677;SDS011;1855;50.934;6.958;2022-12-13T10:30:09;17.58;;;15.57;;
3677;SDS011;1855;50.934;6.958;2022-12-13T10:32:47;21.40;;;17.80;;
3677;SDS011;1855;50.934;6.958;2022-12-13T10:35:22;16.80;;;14.55;;
3677;SDS011;1855;50.934;6.958;2022-12-13T10:37:50;17.73;;;15.82;;
3677;SDS011;1855;50.934;6.958;2022-12-13T10:40:23;16.45;;;14.57;;
3677;SDS011;1855;50.934;6.958;2022-12-13T10:43:07;14.40;;;13.00;;
3677;SDS011;1855;50.934;6.958;2022-12-13T10:45:37;14.90;;;12.67;;
3677;SDS011;1855;50.934;6.958;2022-12-13T10:48:05;14.30;;;12.82;;
3677;SDS011;1855;50.934;6.958;2022-12-13T10:50:42;15.03;;;12.70;;
3677;SDS011;1855;50.934;6.958;2022-12-13T10:53:13;14.60;;;13.07;;
3677;SDS011;1855;50.934;6.958;2022-12-13T10:55:44;16.02;;;13.13;;
3677;SDS011;1855;50.934;6.958;2022-12-13T10:58:18;14.52;;;13.13;;
3677;SDS011;1855;50.934;6.958;2022-12-13T11:00:45;14.82;;;13.23;;
3677;SDS011;1855;50.934;6.958;2022-12-13T11:03:26;14.30;;;12.80;;
3677;SDS011;1855;50.934;6.958;2022-12-13T11:06:00;14.10;;;12.70;;
3677;SDS011;1855;50.934;6.958;2022-12-13T11:08:28;13.88;;;11.57;;
3677;SDS011;1855;50.934;6.958;2022-12-13T11:10:57;13.70;;;12.20;;
3677;SDS011;1855;50.934;6.958;2022-12-13T11:13:28;13.90;;;12.40;;
3677;SDS011;1855;50.934;6.958;2022-12-13T11:16:00;13.20;;;11.65;;
3677;SDS011;1855;50.934;6.958;2022-12-13T11:18:30;14.93;;;13.43;;
3677;SDS011;1855;50.934;6.958;2022-12-13T11:21:02;13.10;;;11.80;;
3677;SDS011;1855;50.934;6.958;2022-12-13T11:23:32;13.82;;;12.43;;
3677;SDS011;1855;50.934;6.958;2022-12-13T11:26:05;13.00;;;11.70;;
3677;SDS011;1855;50.934;6.958;2022-12-13T11:28:50;13.90;;;12.45;;
3677;SDS011;1855;50.934;6.958;2022-12-13T11:31:33;14.30;;;12.63;;
3677;SDS011;1855;50.934;6.958;2022-12-13T11:34:08;13.67;;;11.40;;
3677;SDS011;1855;50.934;6.958;2022-12-13T11:36:45;12.80;;;11.30;;
3677;SDS011;1855;50.934;6.958;2022-12-13T11:39:18;13.00;;;11.63;;
3677;SDS011;1855;50.934;6.958;2022-12-13T11:41:52;11.93;;;10.73;;
3677;SDS011;1855;50.934;6.958;2022-12-13T11:44:26;13.07;;;11.55;;
3677;SDS011;1855;50.934;6.958;2022-12-13T11:47:03;13.10;;;11.60;;
3677;SDS011;1855;50.934;6.958;2022-12-13T11:49:35;12.40;;;11.10;;
3677;SDS011;1855;50.934;6.958;2022-12-13T11:52:10;13.70;;;12.00;;
3677;SDS011;1855;50.934;6.958;2022-12-13T11:54:43;12.13;;;10.93;;
3677;SDS011;1855;50.934;6.958;2022-12-13T11:57:17;12.60;;;11.30;;
3677;SDS011;1855;50.934;6.958;2022-12-13T11:59:57;12.50;;;11.20;;
3677;SDS011;1855;50.934;6.958;2022-12-13T12:02:31;12.75;;;11.45;;
3677;SDS011;1855;50.934;6.958;2022-12-13T12:05:01;13.33;;;11.93;;
3677;SDS011;1855;50.934;6.958;2022-12-13T12:07:32;12.90;;;11.60;;
3677;SDS011;1855;50.934;6.958;2022-12-13T12:10:03;13.50;;;11.68;;
3677;SDS011;1855;50.934;6.958;2022-12-13T12:12:47;13.27;;;11.98;;
3677;SDS011;1855;50.934;6.958;2022-12-13T12:15:21;14.10;;;11.95;;
3677;SDS011;1855;50.934;6.958;2022-12-13T12:17:53;13.83;;;12.43;;
3677;SDS011;1855;50.934;6.958;2022-12-13T12:20:21;12.55;;;11.25;;
3677;SDS011;1855;50.934;6.958;2022-12-13T12:22:56;13.32;;;12.02;;
3677;SDS011;1855;50.934;6.958;2022-12-13T12:25:30;13.50;;;12.20;;
3677;SDS011;1855;50.934;6.958;2022-12-13T12:28:12;13.38;;;11.98;;
3677;SDS011;1855;50.934;6.958;2022-12-13T12:30:47;14.40;;;12.55;;
3677;SDS011;1855;50.934;6.958;2022-12-13T12:33:22;16.40;;;13.25;;
3677;SDS011;1855;50.934;6.958;2022-12-13T12:36:00;14.52;;;12.90;;
3677;SDS011;1855;50.934;6.958;2022-12-13T12:38:39;12.88;;;11.57;;
3677;SDS011;1855;50.934;6.958;2022-12-13T12:44:11;12.80;;;11.18;;
3677;SDS011;1855;50.934;6.958;2022-12-13T12:46:54;12.48;;;11.18;;
3677;SDS011;1855;50.934;6.958;2022-12-13T12:52:41;12.83;;;11.53;;
3677;SDS011;1855;50.934;6.958;2022-12-13T12:55:17;12.38;;;11.18;;
3677;SDS011;1855;50.934;6.958;2022-12-13T12:57:52;11.30;;;10.20;;
3677;SDS011;1855;50.934;6.958;2022-12-13T13:00:25;11.55;;;10.35;;
3677;SDS011;1855;50.934;6.958;2022-12-13T13:02:56;12.20;;;10.70;;
3677;SDS011;1855;50.934;6.958;2022-12-13T13:05:32;13.13;;;10.48;;
3677;SDS011;1855;50.934;6.958;2022-12-13T13:08:04;12.20;;;10.77;;
3677;SDS011;1855;50.934;6.958;2022-12-13T13:10:38;11.68;;;10.40;;
3677;SDS011;1855;50.934;6.958;2022-12-13T13:16:00;11.75;;;10.55;;
3677;SDS011;1855;50.934;6.958;2022-12-13T13:18:44;11.90;;;10.60;;
3677;SDS011;1855;50.934;6.958;2022-12-13T13:21:32;13.52;;;10.27;;
3677;SDS011;1855;50.934;6.958;2022-12-13T13:24:16;11.98;;;10.68;;
3677;SDS011;1855;50.934;6.958;2022-12-13T13:26:48;11.93;;;10.67;;
3677;SDS011;1855;50.934;6.958;2022-12-13T13:29:20;12.52;;;10.40;;
3677;SDS011;1855;50.934;6.958;2022-12-13T13:31:56;12.55;;;10.30;;
3677;SDS011;1855;50.934;6.958;2022-12-13T13:34:25;11.23;;;10.13;;
3677;SDS011;1855;50.934;6.958;2022-12-13T13:36:54;13.10;;;10.80;;
3677;SDS011;1855;50.934;6.958;2022-12-13T13:42:23;12.75;;;11.40;;
3677;SDS011;1855;50.934;6.958;2022-12-13T13:44:54;10.23;;;9.05;;
3677;SDS011;1855;50.934;6.958;2022-12-13T13:47:43;11.50;;;10.30;;
3677;SDS011;1855;50.934;6.958;2022-12-13T14:08:50;14.00;;;11.30;;
3677;SDS011;1855;50.934;6.958;2022-12-13T14:14:52;11.73;;;10.52;;
3677;SDS011;1855;50.934;6.958;2022-12-13T14:20:46;16.08;;;12.20;;
3677;SDS011;1855;50.934;6.958;2022-12-13T14:23:25;12.50;;;11.20;;
3677;SDS011;1855;50.934;6.958;2022-12-13T14:28:46;14.80;;;12.40;;
3677;SDS011;1855;50.934;6.958;2022-12-13T14:31:16;14.82;;;12.70;;
3677;SDS011;1855;50.934;6.958;2022-12-13T14:33:45;13.23;;;11.82;;
3677;SDS011;1855;50.934;6.958;2022-12-13T14:36:15;15.48;;;11.90;;
3677;SDS011;1855;50.934;6.958;2022-12-13T14:38:44;14.07;;;11.52;;
3677;SDS011;1855;50.934;6.958;2022-12-13T14:41:14;12.17;;;10.83;;
3677;SDS011;1855;50.934;6.958;2022-12-13T14:43:44;13.20;;;11.90;;
3677;SDS011;1855;50.934;6.958;2022-12-13T14:46:11;13.10;;;11.23;;
3677;SDS011;1855;50.934;6.958;2022-12-13T14:48:43;14.05;;;12.55;;
3677;SDS011;1855;50.934;6.958;2022-12-13T14:51:30;13.70;;;11.48;;
3677;SDS011;1855;50.934;6.958;2022-12-13T14:53:58;15.65;;;13.40;;
3677;SDS011;1855;50.934;6.958;2022-12-13T14:56:27;15.03;;;13.53;;
3677;SDS011;1855;50.934;6.958;2022-12-13T14:58:55;13.77;;;12.27;;
3677;SDS011;1855;50.934;6.958;2022-12-13T15:01:23;14.07;;;12.67;;
3677;SDS011;1855;50.934;6.958;2022-12-13T15:03:52;13.30;;;11.75;;
3677;SDS011;1855;50.934;6.958;2022-12-13T15:06:18;13.93;;;11.60;;
3677;SDS011;1855;50.934;6.958;2022-12-13T15:08:47;13.23;;;11.80;;
3677;SDS011;1855;50.934;6.958;2022-12-13T15:11:14;12.35;;;11.05;;
3677;SDS011;1855;50.934;6.958;2022-12-13T15:13:42;12.00;;;10.43;;
3677;SDS011;1855;50.934;6.958;2022-12-13T15:16:13;13.45;;;11.65;;
3677;SDS011;1855;50.934;6.958;2022-12-13T15:18:47;13.65;;;11.35;;
3677;SDS011;1855;50.934;6.958;2022-12-13T15:21:19;11.80;;;10.52;;
3677;SDS011;1855;50.934;6.958;2022-12-13T15:23:49;12.00;;;9.30;;
3677;SDS011;1855;50.934;6.958;2022-12-13T15:26:19;11.82;;;10.43;;
3677;SDS011;1855;50.934;6.958;2022-12-13T15:28:50;12.27;;;10.13;;
3677;SDS011;1855;50.934;6.958;2022-12-13T15:31:19;11.60;;;9.85;;
3677;SDS011;1855;50.934;6.958;2022-12-13T15:33:46;13.95;;;11.20;;
3677;SDS011;1855;50.934;6.958;2022-12-13T15:36:13;11.48;;;9.82;;
3677;SDS011;1855;50.934;6.958;2022-12-13T15:38:45;12.10;;;10.80;;
3677;SDS011;1855;50.934;6.958;2022-12-13T15:41:26;10.40;;;9.30;;
3677;SDS011;1855;50.934;6.958;2022-12-13T15:43:56;13.13;;;10.10;;
3677;SDS011;1855;50.934;6.958;2022-12-13T15:46:27;11.13;;;9.32;;
3677;SDS011;1855;50.934;6.958;2022-12-13T15:48:55;11.20;;;9.60;;